Time;durP1;ratioP1;P1;durP2;ratioP2;P2;SDS_P1;SDS_P2;PMS_P1;PMS_P2;Temp;Humidity;BMP_temperature;BMP_pressure;BME280_temperature;BME280_humidity;BME280_pressure;Samples;Min_cycle;Max_cycle;Signal;HPM_P1;HPM_P2
2024/02/27 00:01:53;;;;;;;4.03;2.35;;;6.40;99.90;;;;;;5013471;28;20033;-74
2024/02/27 00:04:19;;;;;;;2.85;1.90;;;6.40;99.90;;;;;;5015506;28;20021;-74
2024/02/27 00:06:45;;;;;;;3.22;2.30;;;6.40;99.90;;;;;;5014489;28;20457;-73
2024/02/27 00:09:17;;;;;;;3.03;2.22;;;6.30;99.90;;;;;;5019466;28;20025;-73
2024/02/27 00:11:43;;;;;;;2.97;2.13;;;6.30;99.90;;;;;;5011531;28;20112;-73
2024/02/27 00:14:09;;;;;;;3.72;2.47;;;6.30;99.90;;;;;;5015071;28;20060;-73
2024/02/27 00:16:35;;;;;;;2.40;1.88;;;6.30;99.90;;;;;;5015828;28;20660;-73
2024/02/27 00:19:01;;;;;;;5.00;2.38;;;6.20;99.90;;;;;;5015221;28;20041;-73
2024/02/27 00:21:27;;;;;;;2.75;2.15;;;6.20;99.90;;;;;;5018777;28;20119;-74
2024/02/27 00:23:52;;;;;;;3.20;2.25;;;6.20;99.90;;;;;;5016444;28;20034;-73
2024/02/27 00:26:18;;;;;;;3.45;2.45;;;6.20;99.90;;;;;;5010182;28;20033;-73
2024/02/27 00:28:44;;;;;;;5.30;2.28;;;6.10;99.90;;;;;;5016725;28;20032;-73
2024/02/27 00:31:10;;;;;;;3.13;2.25;;;6.10;99.90;;;;;;5012773;28;20049;-74
2024/02/27 00:33:35;;;;;;;4.95;3.00;;;6.10;99.90;;;;;;5011175;28;20436;-73
2024/02/27 00:36:02;;;;;;;3.75;2.42;;;6.00;99.90;;;;;;5015897;28;20065;-74
2024/02/27 00:38:27;;;;;;;3.47;2.30;;;6.00;99.90;;;;;;5014280;28;20503;-73
2024/02/27 00:40:53;;;;;;;4.40;2.70;;;6.00;99.90;;;;;;5013753;28;20022;-73
2024/02/27 00:43:19;;;;;;;3.25;2.63;;;6.00;99.90;;;;;;5013364;28;20057;-73
2024/02/27 00:45:45;;;;;;;3.55;2.20;;;6.00;99.90;;;;;;5014089;28;20116;-73
2024/02/27 00:48:11;;;;;;;4.28;2.42;;;5.90;99.90;;;;;;5012855;28;20044;-73
2024/02/27 00:50:39;;;;;;;4.40;2.67;;;5.90;99.90;;;;;;5013865;28;20029;-73
2024/02/27 00:53:05;;;;;;;3.53;2.38;;;5.90;99.90;;;;;;5016719;28;20040;-73
2024/02/27 00:55:31;;;;;;;4.38;2.60;;;5.80;99.90;;;;;;5015665;28;20036;-74
2024/02/27 00:57:57;;;;;;;2.95;2.20;;;5.80;99.90;;;;;;5012635;28;20036;-73
2024/02/27 01:00:23;;;;;;;3.33;2.60;;;5.80;99.90;;;;;;5014511;28;20468;-73
2024/02/27 01:02:48;;;;;;;6.72;3.13;;;5.80;99.90;;;;;;5010309;28;20064;-73
2024/02/27 01:05:14;;;;;;;4.15;2.55;;;5.70;99.90;;;;;;5011682;28;20041;-74
2024/02/27 01:07:42;;;;;;;7.43;3.15;;;5.70;99.90;;;;;;5014103;28;20090;-74
2024/02/27 01:10:08;;;;;;;3.67;2.53;;;5.70;99.90;;;;;;5011417;28;20042;-73
2024/02/27 01:12:34;;;;;;;4.72;2.72;;;5.70;99.90;;;;;;5014872;28;20033;-74
2024/02/27 01:15:01;;;;;;;5.05;2.70;;;5.60;99.90;;;;;;5017546;28;20034;-73
2024/02/27 01:17:26;;;;;;;3.90;2.72;;;5.60;99.90;;;;;;5010814;28;20036;-73
2024/02/27 01:19:52;;;;;;;5.95;3.03;;;5.60;99.90;;;;;;5014765;28;20393;-74
2024/02/27 01:22:31;;;;;;;5.35;3.05;;;5.50;99.90;;;;;;5017029;28;20037;-74
2024/02/27 01:24:59;;;;;;;6.03;3.13;;;5.50;99.90;;;;;;5012013;28;20448;-74
2024/02/27 01:27:25;;;;;;;6.20;3.20;;;5.50;99.90;;;;;;5013790;28;20358;-73
2024/02/27 01:29:53;;;;;;;5.43;3.50;;;5.50;99.90;;;;;;5013817;28;20033;-73
2024/02/27 01:32:18;;;;;;;6.70;3.38;;;5.50;99.90;;;;;;5009153;28;20107;-73
2024/02/27 01:34:45;;;;;;;4.28;3.20;;;5.50;99.90;;;;;;5011635;28;20029;-73
2024/02/27 01:37:11;;;;;;;4.10;2.92;;;5.50;99.90;;;;;;5015892;28;20069;-73
2024/02/27 01:39:37;;;;;;;5.88;3.40;;;5.50;99.90;;;;;;5016531;28;20076;-73
2024/02/27 01:42:03;;;;;;;9.35;3.47;;;5.50;99.90;;;;;;5012079;28;20037;-73
2024/02/27 01:44:30;;;;;;;5.22;2.95;;;5.50;99.90;;;;;;5015089;28;20037;-73
2024/02/27 01:46:56;;;;;;;5.35;3.05;;;5.50;99.90;;;;;;5011291;28;20089;-73
2024/02/27 01:49:23;;;;;;;5.53;3.50;;;5.50;99.90;;;;;;5014081;28;20030;-73
2024/02/27 01:51:49;;;;;;;5.63;3.72;;;5.40;99.90;;;;;;5017501;28;20543;-73
2024/02/27 01:54:20;;;;;;;7.43;3.30;;;5.40;99.90;;;;;;5011374;28;20053;-73
2024/02/27 01:56:48;;;;;;;5.80;3.85;;;5.50;99.90;;;;;;5009865;28;20038;-73
2024/02/27 01:59:16;;;;;;;8.50;3.85;;;5.40;99.90;;;;;;5015840;28;20747;-73
2024/02/27 02:01:43;;;;;;;5.50;3.88;;;5.50;99.90;;;;;;5011577;28;20050;-74
2024/02/27 02:04:12;;;;;;;5.18;3.72;;;5.50;99.90;;;;;;5015050;28;20029;-73
2024/02/27 02:06:38;;;;;;;4.70;3.20;;;5.50;99.90;;;;;;5026961;28;20393;-73
2024/02/27 02:09:04;;;;;;;5.28;3.80;;;5.50;99.90;;;;;;5012543;28;20489;-73
2024/02/27 02:11:30;;;;;;;5.72;3.42;;;5.60;99.90;;;;;;5013222;28;20037;-74
2024/02/27 02:13:57;;;;;;;5.82;3.45;;;5.60;99.90;;;;;;5022495;28;20489;-73
2024/02/27 02:16:22;;;;;;;6.30;3.50;;;5.60;99.90;;;;;;5017597;28;20036;-73
2024/02/27 02:18:49;;;;;;;7.22;3.88;;;5.70;99.90;;;;;;5016876;28;20033;-74
2024/02/27 02:21:14;;;;;;;4.07;3.53;;;5.70;99.90;;;;;;5019202;28;20511;-73
2024/02/27 02:23:43;;;;;;;4.88;3.83;;;5.80;99.90;;;;;;5014001;28;20028;-73
2024/02/27 02:26:09;;;;;;;4.75;3.33;;;5.80;99.90;;;;;;5015486;28;20512;-73
2024/02/27 02:28:34;;;;;;;5.57;3.88;;;5.80;99.90;;;;;;5014121;28;20042;-73
2024/02/27 02:31:00;;;;;;;6.25;4.18;;;5.90;99.90;;;;;;5016595;28;20066;-73
2024/02/27 02:33:27;;;;;;;5.72;3.55;;;5.90;99.90;;;;;;5017573;28;20037;-73
2024/02/27 02:35:53;;;;;;;7.30;3.65;;;5.90;99.90;;;;;;5019442;28;20033;-73
2024/02/27 02:38:19;;;;;;;6.07;3.85;;;5.90;99.90;;;;;;5018610;28;20040;-73
2024/02/27 02:40:45;;;;;;;8.52;4.00;;;5.90;99.90;;;;;;5018235;28;20029;-73
2024/02/27 02:43:11;;;;;;;5.38;3.97;;;6.00;99.90;;;;;;5015739;28;20025;-73
2024/02/27 02:45:37;;;;;;;5.55;3.72;;;6.00;99.90;;;;;;5012351;28;20125;-73
2024/02/27 02:48:03;;;;;;;5.30;3.20;;;6.00;99.90;;;;;;5016712;28;20154;-73
2024/02/27 02:50:30;;;;;;;6.15;3.45;;;6.00;99.90;;;;;;5021538;28;20040;-73
2024/02/27 02:52:59;;;;;;;4.93;3.30;;;6.00;99.90;;;;;;5008750;28;20045;-73
2024/02/27 02:55:25;;;;;;;5.22;3.42;;;6.00;99.90;;;;;;5012725;28;20038;-73
2024/02/27 02:57:51;;;;;;;4.97;3.30;;;6.00;99.90;;;;;;5020960;28;20067;-73
2024/02/27 03:00:18;;;;;;;6.35;3.90;;;6.00;99.90;;;;;;5014333;28;20053;-73
2024/02/27 03:02:44;;;;;;;5.82;3.60;;;6.00;99.90;;;;;;5016178;28;20527;-73
2024/02/27 03:05:12;;;;;;;4.13;3.40;;;6.00;99.90;;;;;;5019820;28;20105;-73
2024/02/27 03:07:41;;;;;;;6.15;3.80;;;6.00;99.90;;;;;;5010492;28;20030;-73
2024/02/27 03:10:08;;;;;;;7.20;3.75;;;6.00;99.90;;;;;;5016301;28;20094;-73
2024/02/27 03:12:39;;;;;;;6.45;3.83;;;6.00;99.90;;;;;;5020157;28;20033;-71
2024/02/27 03:15:08;;;;;;;5.03;3.55;;;6.00;99.90;;;;;;5012511;28;20045;-73
2024/02/27 03:17:34;;;;;;;8.18;3.33;;;6.00;99.90;;;;;;5012769;28;20060;-73
2024/02/27 03:20:00;;;;;;;6.30;3.30;;;5.90;99.90;;;;;;5019203;28;20136;-71
2024/02/27 03:22:26;;;;;;;4.97;3.42;;;5.90;99.90;;;;;;5013139;28;20130;-71
2024/02/27 03:24:51;;;;;;;6.38;3.70;;;5.90;99.90;;;;;;5013097;28;20029;-71
2024/02/27 03:27:17;;;;;;;5.20;3.13;;;5.80;99.90;;;;;;5017866;28;20045;-71
2024/02/27 03:29:43;;;;;;;6.80;3.92;;;5.90;99.90;;;;;;5015248;28;20127;-71
2024/02/27 03:32:09;;;;;;;5.53;3.42;;;5.80;99.90;;;;;;5020662;28;20041;-71
2024/02/27 03:34:35;;;;;;;6.05;3.35;;;5.80;99.90;;;;;;5019108;28;20029;-74
2024/02/27 03:37:02;;;;;;;5.38;3.40;;;5.70;99.90;;;;;;5014206;28;20040;-74
2024/02/27 03:39:28;;;;;;;4.82;3.55;;;5.70;99.90;;;;;;5015760;28;20096;-73
2024/02/27 03:41:54;;;;;;;7.78;3.85;;;5.70;99.90;;;;;;5017146;28;20026;-74
2024/02/27 03:44:20;;;;;;;7.28;3.53;;;5.70;99.90;;;;;;5015904;28;20056;-73
2024/02/27 03:46:46;;;;;;;4.45;3.10;;;5.60;99.90;;;;;;5014644;28;20022;-73
2024/02/27 03:49:12;;;;;;;6.22;4.07;;;5.60;99.90;;;;;;5014406;28;20433;-73
2024/02/27 03:51:37;;;;;;;5.90;4.13;;;5.60;99.90;;;;;;5015376;28;20037;-73
2024/02/27 03:54:04;;;;;;;4.68;3.50;;;5.60;99.90;;;;;;5011254;28;20040;-71
2024/02/27 03:56:30;;;;;;;5.40;3.78;;;5.50;99.90;;;;;;5017492;28;20049;-71
2024/02/27 03:58:56;;;;;;;5.78;3.55;;;5.50;99.90;;;;;;5015661;28;20033;-71
2024/02/27 04:01:21;;;;;;;5.22;3.55;;;5.50;99.90;;;;;;5014401;28;20051;-72
2024/02/27 04:03:47;;;;;;;5.45;3.70;;;5.50;99.90;;;;;;5016483;28;20065;-71
2024/02/27 04:06:13;;;;;;;4.97;3.30;;;5.50;99.90;;;;;;5013418;28;20026;-71
2024/02/27 04:08:39;;;;;;;7.63;3.83;;;5.50;99.90;;;;;;5013854;28;20180;-71
2024/02/27 04:11:05;;;;;;;6.43;4.32;;;5.50;99.90;;;;;;5015912;28;20844;-71
2024/02/27 04:13:32;;;;;;;7.00;3.88;;;5.50;99.90;;;;;;5008866;28;20021;-70
2024/02/27 04:15:58;;;;;;;6.00;3.70;;;5.50;99.90;;;;;;5012646;28;20140;-71
2024/02/27 04:18:24;;;;;;;5.72;3.63;;;5.50;99.90;;;;;;5014645;28;20108;-71
2024/02/27 04:20:50;;;;;;;5.90;3.90;;;5.50;99.90;;;;;;5010174;28;20912;-71
2024/02/27 04:23:16;;;;;;;5.22;3.13;;;5.50;99.90;;;;;;5012959;28;20069;-71
2024/02/27 04:25:42;;;;;;;4.50;3.30;;;5.60;99.90;;;;;;5017108;28;20037;-71
2024/02/27 04:28:08;;;;;;;6.20;4.10;;;5.60;99.90;;;;;;5011298;28;20108;-71
2024/02/27 04:30:34;;;;;;;6.25;4.07;;;5.60;99.90;;;;;;5012709;28;20064;-71
2024/02/27 04:33:00;;;;;;;6.97;3.88;;;5.70;99.90;;;;;;5013097;28;20120;-71
2024/02/27 04:35:26;;;;;;;8.90;4.03;;;5.70;99.90;;;;;;5011845;28;20110;-71
2024/02/27 04:37:52;;;;;;;7.28;4.13;;;5.70;99.90;;;;;;5014718;28;20044;-71
2024/02/27 04:40:18;;;;;;;7.57;3.78;;;5.70;99.90;;;;;;5012313;28;20043;-71
2024/02/27 04:42:44;;;;;;;5.47;3.53;;;5.70;99.90;;;;;;5014817;28;20489;-71
2024/02/27 04:45:10;;;;;;;6.18;3.45;;;5.70;99.90;;;;;;5013995;28;20080;-71
2024/02/27 04:47:36;;;;;;;7.25;3.65;;;5.70;99.90;;;;;;5014093;28;20083;-70
2024/02/27 04:50:02;;;;;;;6.18;3.95;;;5.70;99.90;;;;;;5016774;28;20033;-71
2024/02/27 04:52:28;;;;;;;5.68;3.97;;;5.70;99.90;;;;;;5015701;28;20473;-71
2024/02/27 04:54:53;;;;;;;6.15;3.78;;;5.70;99.90;;;;;;5013311;28;20033;-71
2024/02/27 04:57:20;;;;;;;5.78;3.67;;;5.60;99.90;;;;;;5012052;28;20036;-71
2024/02/27 04:59:47;;;;;;;6.13;3.50;;;5.60;99.90;;;;;;5014829;28;20025;-71
2024/02/27 05:02:13;;;;;;;7.45;4.55;;;5.50;99.90;;;;;;5014627;28;20037;-71
2024/02/27 05:04:39;;;;;;;6.60;4.40;;;5.40;99.90;;;;;;5013394;28;20033;-71
2024/02/27 05:07:05;;;;;;;6.90;4.05;;;5.40;99.90;;;;;;5013612;28;20065;-71
2024/02/27 05:09:31;;;;;;;8.00;4.85;;;5.30;99.90;;;;;;5013889;28;20084;-71
2024/02/27 05:11:57;;;;;;;7.93;4.30;;;5.30;99.90;;;;;;5016622;28;20034;-71
2024/02/27 05:14:25;;;;;;;6.85;4.85;;;5.20;99.90;;;;;;5011753;28;20154;-71
2024/02/27 05:16:51;;;;;;;8.43;4.35;;;5.20;99.90;;;;;;5012606;28;20030;-71
2024/02/27 05:19:18;;;;;;;8.13;4.80;;;5.10;99.90;;;;;;5013229;28;20571;-71
2024/02/27 05:21:44;;;;;;;7.30;5.00;;;5.10;99.90;;;;;;5009960;28;20037;-71
2024/02/27 05:24:10;;;;;;;6.18;4.63;;;5.10;99.90;;;;;;5017097;28;20029;-71
2024/02/27 05:26:36;;;;;;;6.57;4.15;;;5.00;99.90;;;;;;5014413;28;20033;-71
2024/02/27 05:29:03;;;;;;;7.28;4.57;;;5.00;99.90;;;;;;5011187;28;20039;-71
2024/02/27 05:31:30;;;;;;;7.63;4.63;;;5.00;99.90;;;;;;5013328;28;20601;-71
2024/02/27 05:33:57;;;;;;;8.73;4.72;;;5.00;99.90;;;;;;5026092;28;20835;-71
2024/02/27 05:36:24;;;;;;;8.10;4.75;;;5.00;99.90;;;;;;5007745;28;20724;-71
2024/02/27 05:38:51;;;;;;;7.80;5.05;;;5.00;99.90;;;;;;5014794;28;20452;-71
2024/02/27 05:41:17;;;;;;;7.93;5.20;;;5.00;99.90;;;;;;5015500;28;20087;-71
2024/02/27 05:43:43;;;;;;;8.23;5.07;;;4.90;99.90;;;;;;5012150;28;20133;-71
2024/02/27 05:46:09;;;;;;;8.23;4.93;;;4.90;99.90;;;;;;5014247;28;20083;-71
2024/02/27 05:48:37;;;;;;;9.93;4.70;;;4.90;99.90;;;;;;5016607;28;20041;-71
2024/02/27 05:51:03;;;;;;;9.55;5.32;;;4.80;99.90;;;;;;5012649;28;20029;-71
2024/02/27 05:53:31;;;;;;;8.55;5.13;;;4.80;99.90;;;;;;5015890;28;20647;-71
2024/02/27 05:55:57;;;;;;;9.48;5.28;;;4.80;99.90;;;;;;5014687;28;20042;-71
2024/02/27 05:58:27;;;;;;;11.15;5.80;;;4.70;99.90;;;;;;5011902;28;20036;-71
2024/02/27 06:00:54;;;;;;;11.40;5.05;;;4.70;99.90;;;;;;5020812;28;20083;-71
2024/02/27 06:03:23;;;;;;;11.60;6.03;;;4.70;99.90;;;;;;5019935;28;20037;-71
2024/02/27 06:05:53;;;;;;;12.30;6.20;;;4.60;99.90;;;;;;5015840;28;20793;-73
2024/02/27 06:08:21;;;;;;;9.38;5.78;;;4.60;99.90;;;;;;5018354;28;20033;-72
2024/02/27 06:10:46;;;;;;;9.43;5.85;;;4.50;99.90;;;;;;5017609;28;20185;-73
2024/02/27 06:13:12;;;;;;;11.75;6.38;;;4.50;99.90;;;;;;5017029;28;20060;-73
2024/02/27 06:15:38;;;;;;;11.50;6.40;;;4.50;99.90;;;;;;5017142;28;20029;-73
2024/02/27 06:18:10;;;;;;;10.65;5.82;;;4.40;99.90;;;;;;5017428;28;20040;-73
2024/02/27 06:23:20;;;;;;;10.93;6.07;;;4.40;99.90;;;;;;5015734;28;20025;-72
2024/02/27 06:25:46;;;;;;;9.20;5.78;;;4.40;99.90;;;;;;5016431;28;20776;-73
2024/02/27 06:28:12;;;;;;;11.10;6.40;;;4.30;99.90;;;;;;5015502;28;20032;-71
2024/02/27 06:30:39;;;;;;;11.32;5.93;;;4.30;99.90;;;;;;5015483;28;20029;-72
2024/02/27 06:33:05;;;;;;;11.32;6.60;;;4.30;99.90;;;;;;5013783;28;20519;-70
2024/02/27 06:35:30;;;;;;;12.95;6.80;;;4.30;99.90;;;;;;4989160;28;20034;-69
2024/02/27 06:37:56;;;;;;;11.38;6.45;;;4.40;99.90;;;;;;5015373;28;20124;-70
2024/02/27 06:40:22;;;;;;;10.82;6.45;;;4.30;99.90;;;;;;5017186;28;20056;-71
2024/02/27 06:42:48;;;;;;;13.82;7.63;;;4.30;99.90;;;;;;5014652;28;20180;-71
2024/02/27 06:45:15;;;;;;;12.38;7.22;;;4.40;99.90;;;;;;5018691;28;20099;-71
2024/02/27 06:47:42;;;;;;;11.38;6.68;;;4.40;99.90;;;;;;5014378;28;20426;-71
2024/02/27 06:50:12;;;;;;;11.55;7.32;;;4.40;99.90;;;;;;5010178;28;20175;-73
2024/02/27 06:52:38;;;;;;;12.80;7.68;;;4.50;99.90;;;;;;5014370;28;20110;-75
2024/02/27 06:55:05;;;;;;;13.27;7.47;;;4.50;99.90;;;;;;5013445;28;20054;-74
2024/02/27 06:57:35;;;;;;;12.00;7.63;;;4.60;99.90;;;;;;5014935;28;20083;-73
2024/02/27 07:00:01;;;;;;;17.67;8.73;;;4.60;99.90;;;;;;5009057;28;20049;-72
2024/02/27 07:02:27;;;;;;;16.50;8.43;;;4.70;99.90;;;;;;5014249;28;20422;-74
2024/02/27 07:04:53;;;;;;;18.73;9.93;;;4.70;99.90;;;;;;5009755;28;20025;-72
2024/02/27 07:07:19;;;;;;;19.15;11.15;;;4.80;99.90;;;;;;5017355;28;20037;-73
2024/02/27 07:09:45;;;;;;;18.27;10.13;;;5.00;99.90;;;;;;5020500;28;20035;-74
2024/02/27 07:12:11;;;;;;;18.98;10.40;;;5.10;99.90;;;;;;5014362;28;20663;-72
2024/02/27 07:14:41;;;;;;;23.52;12.43;;;5.20;99.90;;;;;;5019656;28;20099;-73
2024/02/27 07:17:07;;;;;;;21.00;11.07;;;5.40;99.90;;;;;;5013769;28;20033;-71
2024/02/27 07:19:33;;;;;;;19.10;10.40;;;5.50;99.90;;;;;;5010401;28;20040;-74
2024/02/27 07:21:59;;;;;;;19.63;11.55;;;5.60;99.90;;;;;;5008636;28;20033;-72
2024/02/27 07:24:25;;;;;;;26.17;12.52;;;5.70;99.90;;;;;;5012396;28;20060;-72
2024/02/27 07:26:51;;;;;;;23.85;13.00;;;5.80;99.90;;;;;;5009384;28;20490;-73
2024/02/27 07:29:16;;;;;;;18.88;11.35;;;6.00;99.90;;;;;;5014986;28;20124;-70
2024/02/27 07:31:44;;;;;;;26.23;13.10;;;6.10;99.90;;;;;;5016520;28;20041;-70
2024/02/27 07:34:12;;;;;;;23.02;12.57;;;6.20;99.90;;;;;;5017315;28;20034;-71
2024/02/27 07:36:38;;;;;;;24.08;12.73;;;6.30;99.90;;;;;;5018187;28;20030;-71
2024/02/27 07:39:04;;;;;;;24.52;13.02;;;6.40;99.90;;;;;;5012749;28;20026;-71
2024/02/27 07:41:29;;;;;;;28.83;15.45;;;6.50;99.90;;;;;;5012727;28;20079;-69
2024/02/27 07:43:55;;;;;;;30.75;15.65;;;6.60;99.90;;;;;;5014360;28;20579;-70
2024/02/27 07:46:21;;;;;;;27.88;15.07;;;6.60;99.90;;;;;;5012175;28;20025;-70
2024/02/27 07:48:47;;;;;;;26.17;13.02;;;6.70;99.90;;;;;;5018158;28;20505;-69
2024/02/27 07:51:29;;;;;;;28.50;16.13;;;6.80;99.90;;;;;;5013698;28;20029;-65
2024/02/27 07:53:55;;;;;;;32.88;19.50;;;6.70;99.90;;;;;;5020339;28;20091;-70
2024/02/27 07:56:21;;;;;;;33.10;16.42;;;6.70;99.90;;;;;;5013745;28;20041;-71
2024/02/27 07:58:47;;;;;;;32.38;18.20;;;6.80;99.90;;;;;;5016544;28;20041;-71
2024/02/27 08:01:13;;;;;;;29.50;15.73;;;6.80;99.90;;;;;;5016188;28;20052;-72
2024/02/27 08:03:39;;;;;;;37.63;15.70;;;6.80;99.90;;;;;;5016979;28;20469;-71
2024/02/27 08:06:06;;;;;;;28.55;15.35;;;6.90;99.90;;;;;;5019202;28;20033;-72
2024/02/27 08:08:32;;;;;;;32.45;16.33;;;6.90;99.90;;;;;;5013461;28;20029;-72
2024/02/27 08:10:58;;;;;;;35.08;15.70;;;6.90;99.90;;;;;;5011711;28;20035;-72
2024/02/27 08:13:25;;;;;;;29.20;16.02;;;6.90;99.90;;;;;;5019028;28;20136;-72
2024/02/27 08:15:51;;;;;;;73.90;33.90;;;6.90;99.90;;;;;;5011336;28;20025;-72
2024/02/27 08:18:17;;;;;;;48.50;24.65;;;6.90;99.90;;;;;;5010367;28;20025;-72
2024/02/27 08:20:47;;;;;;;56.95;27.15;;;6.90;99.90;;;;;;5016291;28;20480;-71
2024/02/27 08:23:13;;;;;;;35.50;18.42;;;6.90;99.90;;;;;;5013750;28;20048;-72
2024/02/27 08:25:39;;;;;;;30.95;15.68;;;7.00;99.90;;;;;;5003228;28;20486;-71
2024/02/27 08:28:06;;;;;;;34.38;17.55;;;7.10;99.90;;;;;;5006535;28;20512;-71
2024/02/27 08:30:32;;;;;;;32.22;15.73;;;7.10;99.90;;;;;;5012258;28;20127;-72
2024/02/27 08:32:59;;;;;;;33.15;16.35;;;7.10;99.90;;;;;;5011466;28;20025;-72
2024/02/27 08:35:25;;;;;;;29.92;15.73;;;7.10;99.90;;;;;;5020614;28;20045;-72
2024/02/27 08:37:52;;;;;;;32.83;15.48;;;7.10;99.90;;;;;;5018327;28;20041;-71
2024/02/27 08:40:18;;;;;;;30.13;14.15;;;7.10;99.90;;;;;;5019409;28;20083;-71
2024/02/27 08:42:44;;;;;;;26.58;14.18;;;7.20;99.90;;;;;;5019513;28;20026;-72
2024/02/27 08:45:10;;;;;;;30.75;14.80;;;7.20;99.90;;;;;;5019790;28;20109;-72
2024/02/27 08:47:36;;;;;;;28.27;13.57;;;7.20;99.90;;;;;;5021034;28;20398;-70
2024/02/27 08:50:03;;;;;;;26.95;13.77;;;7.20;99.90;;;;;;5021194;28;20715;-70
2024/02/27 08:52:30;;;;;;;36.70;16.48;;;7.20;99.90;;;;;;5018462;28;20033;-70
2024/02/27 08:54:55;;;;;;;32.22;14.82;;;7.30;99.90;;;;;;5018210;28;20048;-69
2024/02/27 08:57:21;;;;;;;33.05;15.00;;;7.30;99.90;;;;;;5019809;28;20026;-70
2024/02/27 08:59:48;;;;;;;41.13;17.60;;;7.40;99.90;;;;;;5019382;28;20705;-69
2024/02/27 09:02:14;;;;;;;30.48;14.85;;;7.40;99.90;;;;;;5020274;28;20041;-70
2024/02/27 09:04:40;;;;;;;28.42;14.13;;;7.50;99.90;;;;;;5020780;28;20481;-70
2024/02/27 09:07:06;;;;;;;36.33;15.95;;;7.60;99.90;;;;;;5019852;28;20036;-70
2024/02/27 09:09:32;;;;;;;28.15;13.68;;;7.60;99.90;;;;;;5016975;28;20079;-71
2024/02/27 09:11:58;;;;;;;30.15;12.93;;;7.70;99.90;;;;;;5019504;28;20036;-70
2024/02/27 09:14:24;;;;;;;28.70;15.48;;;7.80;99.90;;;;;;5017023;28;20037;-69
2024/02/27 09:16:50;;;;;;;26.88;13.40;;;7.80;99.90;;;;;;5012249;28;20029;-69
2024/02/27 09:19:17;;;;;;;27.38;14.35;;;7.90;99.90;;;;;;5016593;28;20096;-70
2024/02/27 09:21:43;;;;;;;25.55;13.38;;;8.00;99.90;;;;;;5024280;28;20884;-69
2024/02/27 09:24:09;;;;;;;26.30;12.43;;;8.00;99.90;;;;;;5024052;28;20021;-70
2024/02/27 09:26:35;;;;;;;24.85;13.35;;;8.00;99.90;;;;;;5022099;28;20041;-70
2024/02/27 09:29:02;;;;;;;25.17;11.90;;;8.00;99.90;;;;;;5021115;28;20031;-71
2024/02/27 09:31:28;;;;;;;24.67;12.43;;;8.00;99.90;;;;;;5023103;28;20095;-69
2024/02/27 09:33:54;;;;;;;24.42;12.85;;;8.10;99.90;;;;;;5024175;28;20485;-70
2024/02/27 09:36:20;;;;;;;26.30;11.90;;;8.00;99.90;;;;;;5024351;28;20044;-72
2024/02/27 09:38:47;;;;;;;22.48;11.00;;;8.00;99.90;;;;;;5022241;28;20726;-70
2024/02/27 09:41:42;;;;;;;24.55;12.77;;;8.00;99.90;;;;;;5023020;28;20037;-70
2024/02/27 09:44:09;;;;;;;27.30;13.23;;;8.10;99.90;;;;;;5016254;28;20048;-69
2024/02/27 09:46:37;;;;;;;25.27;13.35;;;8.20;99.90;;;;;;5035988;28;20040;-70
2024/02/27 09:49:05;;;;;;;22.63;12.57;;;8.20;99.90;;;;;;5022982;28;20041;-72
2024/02/27 09:51:33;;;;;;;25.10;13.68;;;8.20;99.90;;;;;;5021508;28;20421;-70
2024/02/27 09:54:00;;;;;;;26.75;13.02;;;8.30;99.90;;;;;;5021764;28;20037;-70
2024/02/27 09:56:27;;;;;;;23.58;12.23;;;8.30;99.90;;;;;;5005571;28;21770;-72
2024/02/27 09:58:54;;;;;;;21.85;11.73;;;8.30;99.90;;;;;;4998563;28;20792;-70
2024/02/27 10:01:22;;;;;;;23.67;12.60;;;8.30;99.90;;;;;;5021972;28;20124;-71
2024/02/27 10:03:48;;;;;;;22.60;11.73;;;8.40;99.90;;;;;;5021694;28;20049;-69
2024/02/27 10:06:16;;;;;;;25.90;12.77;;;8.40;99.90;;;;;;5021484;28;20025;-71
2024/02/27 10:08:50;;;;;;;24.70;11.60;;;8.40;99.90;;;;;;5012088;28;20026;-70
2024/02/27 10:11:17;;;;;;;22.85;12.27;;;8.40;99.90;;;;;;5021613;28;20037;-72
2024/02/27 10:13:43;;;;;;;23.23;12.35;;;8.40;99.90;;;;;;5014309;28;20037;-72
2024/02/27 10:16:10;;;;;;;22.33;11.98;;;8.40;99.90;;;;;;5017493;28;20385;-72
2024/02/27 10:18:36;;;;;;;24.27;12.70;;;8.50;99.90;;;;;;5018654;28;20030;-72
2024/02/27 10:21:04;;;;;;;24.27;12.27;;;8.50;99.90;;;;;;5016902;28;20693;-72
2024/02/27 10:23:30;;;;;;;23.27;12.07;;;8.50;99.90;;;;;;5016684;28;20025;-71
2024/02/27 10:26:07;;;;;;;22.05;11.32;;;8.40;99.90;;;;;;5018541;28;20841;-72
2024/02/27 10:28:34;;;;;;;21.05;10.88;;;8.40;99.90;;;;;;5012045;28;20029;-72
2024/02/27 10:31:10;;;;;;;25.50;12.82;;;8.40;99.90;;;;;;5017015;28;20038;-71
2024/02/27 10:33:41;;;;;;;;;;;8.40;99.90;;;;;;5017912;28;20056;-72
2024/02/27 10:36:08;;;;;;;24.33;12.10;;;8.50;99.90;;;;;;5010246;28;20566;-73
2024/02/27 10:38:34;;;;;;;18.85;10.68;;;8.50;99.90;;;;;;5014185;28;20513;-71
2024/02/27 10:41:01;;;;;;;21.98;10.93;;;8.60;99.90;;;;;;4994186;28;20034;-72
2024/02/27 10:43:27;;;;;;;19.15;10.48;;;8.70;99.90;;;;;;5014880;28;20037;-72
2024/02/27 10:45:56;;;;;;;18.40;10.40;;;8.70;99.90;;;;;;5014296;28;20017;-72
2024/02/27 10:48:23;;;;;;;21.73;11.68;;;8.80;99.90;;;;;;5016937;28;20026;-73
2024/02/27 10:50:48;;;;;;;22.20;11.50;;;8.90;99.90;;;;;;5012210;28;20114;-72
2024/02/27 10:53:16;;;;;;;21.88;11.45;;;9.00;99.90;;;;;;5010700;28;20033;-72
2024/02/27 10:55:47;;;;;;;24.60;11.13;;;9.10;99.90;;;;;;5031235;28;20033;-72
2024/02/27 10:58:14;;;;;;;17.08;10.50;;;9.10;99.90;;;;;;5016493;28;20033;-72
2024/02/27 11:00:39;;;;;;;21.05;10.95;;;9.20;99.90;;;;;;5008934;28;20021;-71
2024/02/27 11:03:08;;;;;;;21.58;10.63;;;9.30;99.90;;;;;;5013546;28;20634;-72
2024/02/27 11:05:36;;;;;;;20.55;11.40;;;9.30;99.90;;;;;;5015929;28;20030;-72
2024/02/27 11:08:02;;;;;;;20.65;11.77;;;9.30;99.90;;;;;;5012294;28;20033;-73
2024/02/27 11:10:30;;;;;;;27.23;14.32;;;9.30;99.90;;;;;;4994025;28;20033;-73
2024/02/27 11:12:56;;;;;;;22.38;11.63;;;9.40;99.90;;;;;;5008901;28;20156;-74
2024/02/27 11:15:23;;;;;;;22.52;10.88;;;9.40;99.90;;;;;;5008582;28;20484;-73
2024/02/27 11:18:20;;;;;;;20.33;11.00;;;9.40;99.90;;;;;;5010828;28;20029;-73
2024/02/27 11:20:47;;;;;;;19.80;11.43;;;9.40;99.90;;;;;;5017827;28;20080;-75
2024/02/27 11:23:14;;;;;;;21.20;11.48;;;9.40;99.90;;;;;;5015682;28;20118;-75
2024/02/27 11:25:40;;;;;;;18.80;10.55;;;9.40;99.90;;;;;;5017648;28;20026;-74
2024/02/27 11:28:07;;;;;;;20.25;10.23;;;9.50;99.90;;;;;;5011410;28;20025;-73
2024/02/27 11:30:34;;;;;;;19.58;10.57;;;9.50;99.90;;;;;;5022668;28;20040;-74
2024/02/27 11:33:00;;;;;;;21.75;12.25;;;9.50;99.90;;;;;;4985438;28;20033;-75
2024/02/27 11:35:27;;;;;;;25.48;12.40;;;9.50;99.90;;;;;;5017256;28;20030;-75
2024/02/27 11:37:53;;;;;;;25.33;13.80;;;9.50;99.90;;;;;;5015322;28;20037;-74
2024/02/27 11:40:44;;;;;;;37.13;16.40;;;9.50;99.90;;;;;;5018682;28;20061;-74
2024/02/27 11:43:09;;;;;;;33.80;16.20;;;9.50;99.90;;;;;;5020925;28;20025;-74
2024/02/27 11:45:35;;;;;;;34.97;14.75;;;9.60;99.90;;;;;;5019732;28;20047;-73
2024/02/27 11:48:01;;;;;;;31.77;15.70;;;9.50;99.90;;;;;;5020539;28;20125;-73
2024/02/27 11:50:34;;;;;;;32.53;16.17;;;9.50;99.90;;;;;;5017843;28;20054;-74
2024/02/27 11:53:20;;;;;;;23.63;12.15;;;9.50;99.90;;;;;;5016875;28;20036;-75
2024/02/27 11:55:47;;;;;;;21.38;11.38;;;9.60;99.90;;;;;;5018892;28;20526;-74
2024/02/27 11:58:13;;;;;;;23.88;12.45;;;9.60;99.90;;;;;;5021235;28;20056;-74
2024/02/27 12:00:39;;;;;;;22.02;12.27;;;9.60;99.90;;;;;;5020919;28;20621;-74
2024/02/27 12:03:09;;;;;;;19.60;10.52;;;9.50;99.90;;;;;;5021391;28;20061;-75
2024/02/27 12:05:36;;;;;;;20.90;10.85;;;9.50;99.90;;;;;;5020305;28;20028;-75
2024/02/27 12:08:01;;;;;;;18.60;11.30;;;9.50;99.90;;;;;;5021357;28;20464;-74
2024/02/27 12:10:28;;;;;;;18.70;10.32;;;9.50;99.90;;;;;;5019596;28;20116;-75
2024/02/27 12:12:53;;;;;;;20.02;10.85;;;9.50;99.90;;;;;;5020740;28;20124;-75
2024/02/27 12:15:20;;;;;;;21.42;11.38;;;9.50;99.90;;;;;;5021168;28;20127;-76
2024/02/27 12:17:46;;;;;;;22.33;11.20;;;9.60;99.90;;;;;;5019272;28;20040;-72
2024/02/27 12:20:13;;;;;;;20.27;9.50;;;9.60;99.90;;;;;;5020203;28;20497;-75
2024/02/27 12:22:45;;;;;;;22.15;11.48;;;9.60;99.90;;;;;;5020514;28;20034;-75
2024/02/27 12:25:11;;;;;;;19.75;11.75;;;9.60;99.90;;;;;;5019107;28;20022;-75
2024/02/27 12:27:37;;;;;;;20.48;11.45;;;9.50;99.90;;;;;;5016043;28;20033;-75
2024/02/27 12:30:10;;;;;;;22.25;11.60;;;9.50;99.90;;;;;;5019732;28;20026;-74
2024/02/27 12:32:41;;;;;;;23.23;11.65;;;9.60;99.90;;;;;;5014781;28;20030;-75
2024/02/27 12:35:09;;;;;;;20.58;11.48;;;9.60;99.90;;;;;;5014198;28;20083;-73
2024/02/27 12:37:42;;;;;;;24.08;11.90;;;9.60;99.90;;;;;;5018224;28;20073;-74
2024/02/27 12:40:14;;;;;;;23.13;11.05;;;9.60;99.90;;;;;;5011903;28;20033;-77
2024/02/27 12:42:43;;;;;;;21.67;11.05;;;9.60;99.90;;;;;;5018566;28;20056;-76
2024/02/27 12:45:11;;;;;;;22.30;11.30;;;9.60;99.90;;;;;;5015070;28;20033;-78
2024/02/27 12:47:47;;;;;;;18.75;10.75;;;9.60;99.90;;;;;;5014169;28;20413;-75
2024/02/27 12:50:16;;;;;;;;;;;9.60;99.90;;;;;;5011707;28;20033;-74